Time;durP1;ratioP1;P1;durP2;ratioP2;P2;SDS_P1;SDS_P2;PMS_P1;PMS_P2;Temp;Humidity;BMP_temperature;BMP_pressure;BME280_temperature;BME280_humidity;BME280_pressure;Samples;Min_cycle;Max_cycle;Signal;HPM_P1;HPM_P2
2024/02/17 00:00:29;;;;;;;6.95;4.38;;;;;;;12.98;81.49;97278.44;4897619;29;20106;-77
2024/02/17 00:02:56;;;;;;;4.25;3.83;;;;;;;13.03;81.32;97270.88;4897910;29;20052;-77
2024/02/17 00:05:24;;;;;;;4.68;4.05;;;;;;;13.06;80.98;97273.13;4897255;29;20052;-77
2024/02/17 00:07:52;;;;;;;4.25;3.85;;;;;;;13.07;80.36;97277.34;4898326;29;20433;-77
2024/02/17 00:10:20;;;;;;;4.10;3.70;;;;;;;13.06;80.59;97286.22;4898296;29;20076;-78
2024/02/17 00:12:47;;;;;;;4.00;3.60;;;;;;;13.07;80.45;97281.78;4898498;29;20481;-78
2024/02/17 00:15:15;;;;;;;3.92;3.58;;;;;;;13.08;80.03;97286.84;4897937;29;20497;-78
2024/02/17 00:17:44;;;;;;;3.30;3.00;;;;;;;13.06;80.52;97285.41;4897642;29;20059;-78
2024/02/17 00:20:12;;;;;;;4.18;3.47;;;;;;;13.03;80.75;97289.22;4897703;29;20053;-78
2024/02/17 00:22:40;;;;;;;4.00;3.53;;;;;;;12.99;80.11;97290.56;4897808;29;20064;-77
2024/02/17 00:25:08;;;;;;;3.83;3.53;;;;;;;12.96;80.61;97291.72;4898491;29;20486;-77
2024/02/17 00:27:36;;;;;;;4.63;3.70;;;;;;;12.93;80.42;97299.13;4899907;29;20136;-77
2024/02/17 00:30:05;;;;;;;3.92;3.53;;;;;;;12.94;80.69;97298.13;4899766;29;20139;-77
2024/02/17 00:32:32;;;;;;;4.57;3.17;;;;;;;12.95;80.74;97294.53;4898999;29;20056;-78
2024/02/17 00:35:01;;;;;;;4.82;3.40;;;;;;;12.97;80.95;97289.94;4898099;29;20080;-77
2024/02/17 00:37:31;;;;;;;5.07;3.90;;;;;;;12.99;80.68;97303.66;4897955;29;20053;-77
2024/02/17 00:39:59;;;;;;;3.35;3.05;;;;;;;12.97;80.23;97295.16;4897496;29;20053;-78
2024/02/17 00:42:26;;;;;;;3.45;2.78;;;;;;;12.97;80.99;97295.16;4897561;29;20515;-77
2024/02/17 00:44:54;;;;;;;3.92;3.22;;;;;;;12.98;80.15;97299.41;4897442;29;20045;-77
2024/02/17 00:47:21;;;;;;;3.60;3.22;;;;;;;12.96;80.64;97301.38;4901221;29;20053;-77
2024/02/17 00:49:49;;;;;;;3.20;2.80;;;;;;;12.96;80.83;97307.41;4920315;29;20037;-77
2024/02/17 00:52:18;;;;;;;4.47;2.70;;;;;;;12.98;80.87;97312.50;4923357;29;20052;-78
2024/02/17 00:54:45;;;;;;;2.42;2.22;;;;;;;12.97;80.75;97313.50;4922301;29;20069;-77
2024/02/17 00:57:13;;;;;;;2.35;2.15;;;;;;;12.96;80.95;97312.66;4912648;29;20058;-77
2024/02/17 00:59:40;;;;;;;3.20;2.70;;;;;;;12.96;80.62;97311.84;4901529;29;20139;-77
2024/02/17 01:02:09;;;;;;;2.55;2.30;;;;;;;12.97;81.09;97319.53;4900974;29;20432;-77
2024/02/17 01:04:37;;;;;;;3.58;2.85;;;;;;;12.97;80.75;97319.53;4901188;29;20434;-77
2024/02/17 01:07:05;;;;;;;2.60;2.40;;;;;;;12.95;80.88;97318.09;4900790;29;20112;-77
2024/02/17 01:09:34;;;;;;;3.50;3.20;;;;;;;12.92;81.05;97315.81;4900818;29;20112;-78
2024/02/17 01:12:01;;;;;;;3.72;3.08;;;;;;;12.91;81.27;97311.59;4900459;29;20048;-77
2024/02/17 01:14:29;;;;;;;2.97;2.78;;;;;;;12.91;80.88;97324.69;4901713;29;20049;-77
2024/02/17 01:16:56;;;;;;;3.47;3.10;;;;;;;12.90;81.46;97323.03;4898543;29;20536;-78
2024/02/17 01:19:24;;;;;;;3.05;2.67;;;;;;;12.89;81.54;97324.03;4898436;29;20420;-78
2024/02/17 01:21:52;;;;;;;4.18;3.83;;;;;;;12.86;81.21;97321.78;4900190;29;20053;-78
2024/02/17 01:24:19;;;;;;;4.20;3.65;;;;;;;12.82;81.53;97325.75;4900572;29;20127;-77
2024/02/17 01:26:48;;;;;;;5.20;4.40;;;;;;;12.80;81.08;97332.97;4900403;29;20061;-78
2024/02/17 01:29:18;;;;;;;4.80;3.85;;;;;;;12.77;81.83;97329.72;4898781;29;20127;-77
2024/02/17 01:31:46;;;;;;;4.93;4.53;;;;;;;12.78;81.85;97331.31;4897937;29;20473;-77
2024/02/17 01:34:14;;;;;;;4.57;4.05;;;;;;;12.81;82.01;97342.44;4898221;29;20144;-77
2024/02/17 01:36:41;;;;;;;5.72;4.53;;;;;;;12.80;81.57;97331.16;4898676;29;20359;-77
2024/02/17 01:39:09;;;;;;;5.30;4.68;;;;;;;12.78;81.63;97333.94;4898882;29;20075;-77
2024/02/17 01:41:37;;;;;;;6.25;5.65;;;;;;;12.77;81.86;97340.19;4899404;29;20049;-77
2024/02/17 01:44:06;;;;;;;6.80;5.13;;;;;;;12.76;81.66;97338.53;4897707;29;20060;-77
2024/02/17 01:46:34;;;;;;;5.35;4.85;;;;;;;12.77;82.15;97340.19;4897885;29;20056;-78
2024/02/17 01:49:01;;;;;;;6.32;5.65;;;;;;;12.78;81.98;97341.81;4898153;29;20143;-78
2024/02/17 01:51:30;;;;;;;6.43;5.72;;;;;;;12.75;82.20;97346.59;4897909;29;20053;-77
2024/02/17 01:53:59;;;;;;;6.63;5.93;;;;;;;12.73;82.37;97336.28;4898274;29;20112;-77
2024/02/17 01:56:27;;;;;;;6.70;6.00;;;;;;;12.73;82.45;97344.16;4898853;29;20088;-77
2024/02/17 01:58:55;;;;;;;8.77;6.32;;;;;;;12.72;82.66;97350.34;4898529;29;20056;-78
2024/02/17 02:01:25;;;;;;;5.95;5.35;;;;;;;12.71;82.51;97348.75;4899202;29;20056;-77
2024/02/17 02:03:52;;;;;;;5.72;5.13;;;;;;;12.67;82.65;97347.47;4899124;29;20052;-78
2024/02/17 02:06:23;;;;;;;9.27;6.15;;;;;;;12.65;82.97;97349.44;4898996;29;20112;-77
2024/02/17 02:08:52;;;;;;;6.40;5.40;;;;;;;12.66;83.16;97352.88;4899014;29;20501;-77
2024/02/17 02:11:21;;;;;;;5.28;4.78;;;;;;;12.68;83.61;97350.88;4899155;29;20092;-77
2024/02/17 02:13:49;;;;;;;6.95;4.78;;;;;;;12.69;83.59;97345.47;4899388;29;20052;-77
2024/02/17 02:16:17;;;;;;;4.00;3.70;;;;;;;12.70;83.97;97354.16;4899350;29;20052;-77
2024/02/17 02:18:46;;;;;;;5.13;4.63;;;;;;;12.71;84.30;97353.16;4899308;29;20564;-77
2024/02/17 02:21:13;;;;;;;4.72;4.28;;;;;;;12.69;83.36;97353.34;4898797;29;20067;-77
2024/02/17 02:23:45;;;;;;;3.97;3.58;;;;;;;12.70;83.58;97354.16;4897407;29;20224;-77
2024/02/17 02:26:14;;;;;;;5.32;4.07;;;;;;;12.70;83.17;97354.97;4898894;29;20405;-77
2024/02/17 02:28:42;;;;;;;4.45;4.00;;;;;;;12.69;83.52;97357.75;4898981;29;20135;-77
2024/02/17 02:31:09;;;;;;;5.13;4.13;;;;;;;12.71;83.96;97361.03;4898158;29;20053;-77
2024/02/17 02:33:37;;;;;;;4.60;3.97;;;;;;;12.70;83.40;97360.22;4897864;29;20095;-77
2024/02/17 02:36:05;;;;;;;5.35;4.85;;;;;;;12.68;82.85;97362.19;4897844;29;20055;-77
2024/02/17 02:38:32;;;;;;;4.60;3.95;;;;;;;12.66;83.36;97373.81;4899160;29;20063;-78
2024/02/17 02:41:00;;;;;;;4.88;4.45;;;;;;;12.63;83.62;97369.75;4899193;29;20083;-77
2024/02/17 02:43:29;;;;;;;4.70;4.15;;;;;;;12.62;84.16;97375.16;4898743;29;20063;-77
2024/02/17 02:45:56;;;;;;;5.65;3.90;;;;;;;12.64;84.40;97379.25;4898791;29;20137;-78
2024/02/17 02:48:24;;;;;;;4.25;3.85;;;;;;;12.65;83.75;97373.00;4898644;29;20428;-77
2024/02/17 02:50:52;;;;;;;4.50;4.10;;;;;;;12.64;83.55;97376.63;4899125;29;20528;-77
2024/02/17 02:53:19;;;;;;;4.20;3.80;;;;;;;12.63;83.74;97379.41;4918617;29;20060;-78
2024/02/17 02:55:47;;;;;;;4.55;4.15;;;;;;;12.60;83.54;97385.81;4912941;29;20069;-78
2024/02/17 02:58:14;;;;;;;4.03;3.72;;;;;;;12.58;83.50;97382.56;4913347;29;20064;-78
2024/02/17 03:00:43;;;;;;;4.22;3.83;;;;;;;12.57;83.80;97380.91;4900549;29;20056;-77
2024/02/17 03:03:11;;;;;;;3.60;3.30;;;;;;;12.57;83.79;97386.97;4899829;29;20059;-77
2024/02/17 03:05:39;;;;;;;4.03;3.58;;;;;;;12.57;83.87;97386.13;4899640;29;20060;-77
2024/02/17 03:08:07;;;;;;;3.65;3.35;;;;;;;12.56;83.39;97392.38;4898979;29;20143;-77
2024/02/17 03:10:34;;;;;;;3.22;2.63;;;;;;;12.56;83.71;97395.00;4899198;29;20143;-77
2024/02/17 03:13:02;;;;;;;2.72;2.53;;;;;;;12.55;83.84;97390.72;4898673;29;20131;-77
2024/02/17 03:15:29;;;;;;;3.88;2.67;;;;;;;12.52;83.60;97394.50;4898392;29;20080;-77
2024/02/17 03:17:58;;;;;;;2.25;2.05;;;;;;;12.52;83.71;97398.94;4898050;29;20080;-77
2024/02/17 03:20:26;;;;;;;2.50;2.30;;;;;;;12.52;83.65;97396.31;4898508;29;20057;-77
2024/02/17 03:22:54;;;;;;;3.65;2.90;;;;;;;12.52;83.76;97401.56;4898353;29;20048;-78
2024/02/17 03:25:21;;;;;;;2.60;2.40;;;;;;;12.49;83.35;97405.34;4898148;29;20428;-77
2024/02/17 03:27:49;;;;;;;2.60;2.40;;;;;;;12.46;83.29;97410.09;4898199;29;20052;-77
2024/02/17 03:30:17;;;;;;;2.67;2.47;;;;;;;12.47;83.50;97411.75;4898055;29;20059;-77
2024/02/17 03:32:45;;;;;;;2.05;1.95;;;;;;;12.48;84.28;97421.22;4898047;29;20517;-77
2024/02/17 03:35:15;;;;;;;2.15;2.05;;;;;;;12.51;84.10;97415.66;4897931;29;20063;-77
2024/02/17 03:37:42;;;;;;;2.95;2.08;;;;;;;12.52;83.68;97419.88;4897992;29;20501;-77
2024/02/17 03:40:11;;;;;;;1.45;1.40;;;;;;;12.52;83.54;97425.13;4897847;29;20135;-77
2024/02/17 03:42:38;;;;;;;1.65;1.55;;;;;;;12.51;83.39;97428.72;4897827;29;20052;-77
2024/02/17 03:45:07;;;;;;;1.73;1.63;;;;;;;12.50;83.62;97432.31;4897695;29;20428;-77
2024/02/17 03:47:34;;;;;;;1.55;1.45;;;;;;;12.49;83.53;97430.69;4897804;29;20078;-77
2024/02/17 03:50:03;;;;;;;1.48;1.38;;;;;;;12.48;83.27;97439.53;4898037;29;20052;-77
2024/02/17 03:52:32;;;;;;;1.13;1.10;;;;;;;12.46;83.75;97441.50;4898393;29;20059;-77
2024/02/17 03:55:00;;;;;;;1.10;1.10;;;;;;;12.43;83.30;97441.84;4898226;29;20494;-77
2024/02/17 03:57:27;;;;;;;1.50;1.40;;;;;;;12.42;83.61;97442.81;4897961;29;20084;-77
2024/02/17 03:59:55;;;;;;;1.50;1.40;;;;;;;12.41;83.58;97446.44;4897576;29;20056;-77
2024/02/17 04:02:22;;;;;;;1.73;1.63;;;;;;;12.42;83.75;97451.50;4898041;29;20112;-77
2024/02/17 04:04:50;;;;;;;1.35;1.25;;;;;;;12.42;83.98;97450.69;4897632;29;20063;-77
2024/02/17 04:07:18;;;;;;;1.23;1.15;;;;;;;12.42;83.74;97461.16;4897761;29;20052;-77
2024/02/17 04:09:47;;;;;;;1.45;1.35;;;;;;;12.38;83.46;97465.13;4897382;29;20064;-77
2024/02/17 04:12:15;;;;;;;1.10;1.10;;;;;;;12.36;83.91;97467.91;4897163;29;20533;-77
2024/02/17 04:14:43;;;;;;;1.73;1.63;;;;;;;12.35;83.43;97472.31;4897279;29;20580;-77
2024/02/17 04:17:11;;;;;;;1.90;1.80;;;;;;;12.32;83.01;97488.34;4897565;29;20092;-77
2024/02/17 04:19:39;;;;;;;3.20;2.90;;;;;;;12.26;82.20;97488.22;4918457;23;20398;-81
2024/02/17 04:22:06;;;;;;;4.03;3.65;;;;;;;12.19;82.10;97490.69;4899372;29;20057;-81
2024/02/17 04:24:34;;;;;;;4.72;3.42;;;;;;;12.15;82.27;97503.28;4899745;29;20063;-79
2024/02/17 04:27:03;;;;;;;4.88;4.07;;;;;;;12.11;81.80;97498.56;4899744;29;20091;-81
2024/02/17 04:29:31;;;;;;;4.65;4.25;;;;;;;12.07;82.04;97510.34;4900137;29;20054;-81
2024/02/17 04:31:59;;;;;;;4.47;3.65;;;;;;;12.08;82.68;97514.59;4900610;29;20116;-79
2024/02/17 04:34:26;;;;;;;5.30;4.80;;;;;;;12.09;82.34;97514.44;4899849;29;20052;-82
2024/02/17 04:36:54;;;;;;;5.88;4.50;;;;;;;12.06;82.27;97522.59;4900144;29;20049;-81
2024/02/17 04:39:21;;;;;;;4.50;4.07;;;;;;;12.04;82.70;97529.00;4900903;29;20120;-81
2024/02/17 04:41:49;;;;;;;5.68;4.85;;;;;;;12.00;82.44;97538.16;4900494;29;20056;-82
2024/02/17 04:44:18;;;;;;;5.53;4.93;;;;;;;11.99;82.09;97549.63;4899570;29;20586;-82
2024/02/17 04:46:45;;;;;;;4.57;4.05;;;;;;;11.94;81.69;97552.72;4899885;29;20096;-82
2024/02/17 04:49:13;;;;;;;5.07;4.25;;;;;;;11.89;81.38;97553.19;4899554;29;20143;-83
2024/02/17 04:51:41;;;;;;;6.13;4.72;;;;;;;11.83;80.54;97551.25;4899793;29;20486;-77
2024/02/17 04:54:08;;;;;;;4.85;4.35;;;;;;;11.78;80.35;97566.59;4902729;29;20057;-81
2024/02/17 04:56:36;;;;;;;4.88;4.43;;;;;;;11.78;80.56;97569.22;4899940;29;20044;-79
2024/02/17 04:59:04;;;;;;;5.38;4.25;;;;;;;11.79;80.70;97576.09;4899364;29;20147;-80
2024/02/17 05:01:33;;;;;;;5.05;4.55;;;;;;;11.79;80.58;97583.94;4899651;29;20461;-81
2024/02/17 05:04:00;;;;;;;5.80;4.22;;;;;;;11.78;81.18;97584.88;4899426;29;20056;-81
2024/02/17 05:06:28;;;;;;;5.57;4.65;;;;;;;11.79;81.56;97581.31;4899743;29;20140;-83
2024/02/17 05:08:55;;;;;;;5.50;4.78;;;;;;;11.79;80.77;97590.97;4899649;29;20063;-77
2024/02/17 05:11:23;;;;;;;5.75;4.88;;;;;;;11.79;81.47;97590.97;4899938;29;20106;-78
2024/02/17 05:13:51;;;;;;;7.10;5.57;;;;;;;11.81;81.95;97587.19;4899586;29;20056;-79
2024/02/17 05:16:18;;;;;;;42.78;29.15;;;;;;;11.83;81.88;97590.47;4898820;29;20084;-79
2024/02/17 05:18:47;;;;;;;42.53;28.30;;;;;;;11.86;81.65;97587.50;4899653;29;20554;-81
2024/02/17 05:21:16;;;;;;;45.88;29.25;;;;;;;11.85;82.39;97591.13;4899644;29;20064;-78
2024/02/17 05:23:44;;;;;;;30.67;19.60;;;;;;;11.84;83.03;97594.69;4899214;29;20518;-79
2024/02/17 05:26:11;;;;;;;17.02;11.38;;;;;;;11.91;83.84;97598.31;4899718;29;20052;-79
2024/02/17 05:28:39;;;;;;;11.10;7.88;;;;;;;11.91;82.88;97600.09;4899914;29;20147;-81
2024/02/17 05:31:24;;;;;;;10.32;7.30;;;;;;;11.90;83.03;97595.88;4898835;29;20143;-79
2024/02/17 05:33:52;;;;;;;7.20;5.75;;;;;;;11.92;83.72;97605.19;4902647;29;20500;-82
2024/02/17 05:36:20;;;;;;;6.90;5.45;;;;;;;11.94;83.79;97600.59;4902933;29;20052;-80
2024/02/17 05:38:48;;;;;;;7.57;5.95;;;;;;;11.95;83.68;97607.44;4902559;29;20185;-83
2024/02/17 05:41:16;;;;;;;8.50;6.45;;;;;;;11.91;81.70;97611.38;4902848;29;20056;-82
2024/02/17 05:43:43;;;;;;;7.78;6.25;;;;;;;11.89;82.92;97607.28;4903272;29;20056;-77
2024/02/17 05:46:11;;;;;;;7.22;5.70;;;;;;;11.94;84.37;97616.28;4903237;29;20128;-81
2024/02/17 05:48:38;;;;;;;9.23;6.20;;;;;;;12.00;84.23;97616.59;4903280;29;20136;-81
2024/02/17 05:51:07;;;;;;;8.23;6.28;;;;;;;12.02;82.23;97622.47;4903288;29;20466;-82
2024/02/17 05:53:35;;;;;;;7.55;6.20;;;;;;;12.02;82.49;97623.28;4903311;29;20048;-83
2024/02/17 05:56:03;;;;;;;9.82;6.72;;;;;;;12.01;81.86;97636.56;4892306;29;20090;-82
2024/02/17 05:58:31;;;;;;;8.00;6.28;;;;;;;11.94;81.42;97636.41;4902242;29;20083;-81
2024/02/17 06:01:01;;;;;;;7.60;5.70;;;;;;;11.90;82.26;97641.13;4894312;29;20122;-81
2024/02/17 06:03:29;;;;;;;7.72;6.10;;;;;;;11.93;83.71;97646.03;4884473;29;20061;-82
2024/02/17 06:05:56;;;;;;;8.77;6.75;;;;;;;11.99;83.73;97648.97;4883976;29;20057;-80
2024/02/17 06:08:25;;;;;;;12.43;7.63;;;;;;;11.98;83.34;97658.59;4884219;29;20144;-84
2024/02/17 06:10:53;;;;;;;9.43;6.78;;;;;;;11.98;83.08;97668.25;4884327;29;20072;-80
2024/02/17 06:13:21;;;;;;;11.63;7.97;;;;;;;11.94;81.79;97663.34;4894471;29;20128;-82
2024/02/17 06:15:49;;;;;;;10.88;7.47;;;;;;;11.91;81.44;97671.50;4902893;29;20056;-81
2024/02/17 06:21:13;;;;;;;10.52;7.78;;;;;;;11.93;82.47;97677.41;4896513;29;20137;-81
2024/02/17 06:23:43;;;;;;;9.82;7.07;;;;;;;11.95;82.73;97691.13;4883772;29;20049;-80
2024/02/17 06:26:24;;;;;;;10.15;7.90;;;;;;;11.99;82.38;97690.81;4886085;29;20128;-81
2024/02/17 06:28:53;;;;;;;10.32;7.40;;;;;;;11.96;81.90;97697.19;4885758;29;20081;-78
2024/02/17 06:31:20;;;;;;;12.98;8.48;;;;;;;11.93;80.33;97708.78;4888084;29;20131;-84
2024/02/17 06:33:48;;;;;;;14.77;10.50;;;;;;;11.81;79.78;97704.03;4886811;29;20068;-79
2024/02/17 06:36:16;;;;;;;14.90;8.65;;;;;;;11.72;80.19;97711.03;4889977;29;20095;-81
2024/02/17 06:38:50;;;;;;;12.60;8.45;;;;;;;11.63;80.89;97720.66;4904757;29;20052;-81
2024/02/17 06:41:18;;;;;;;10.48;7.47;;;;;;;11.55;81.04;97724.06;4904362;29;20104;-83
2024/02/17 06:43:46;;;;;;;13.90;9.77;;;;;;;11.53;81.84;97726.00;4903707;29;20057;-83
2024/02/17 06:46:14;;;;;;;15.40;9.65;;;;;;;11.50;80.90;97736.78;4884893;29;20118;-79
2024/02/17 06:48:42;;;;;;;12.85;9.25;;;;;;;11.47;80.57;97731.06;4885139;29;20088;-79
2024/02/17 06:51:11;;;;;;;16.33;11.43;;;;;;;11.42;80.98;97738.56;4885017;29;20056;-80
2024/02/17 06:53:39;;;;;;;18.88;13.27;;;;;;;11.39;80.50;97739.72;4895080;29;20445;-84
2024/02/17 06:56:08;;;;;;;14.50;10.90;;;;;;;11.37;79.31;97754.72;4903406;29;20127;-83
2024/02/17 06:58:36;;;;;;;16.23;10.48;;;;;;;11.30;79.36;97753.69;4887719;29;20072;-84
2024/02/17 07:01:04;;;;;;;13.55;9.60;;;;;;;11.26;79.45;97753.22;4895646;29;20045;-80
2024/02/17 07:03:32;;;;;;;14.07;10.30;;;;;;;11.24;79.65;97762.16;4904578;29;20529;-80
2024/02/17 07:05:59;;;;;;;15.68;11.45;;;;;;;11.27;79.83;97764.47;4896703;29;20474;-84
2024/02/17 07:08:28;;;;;;;16.20;11.10;;;;;;;11.29;79.89;97770.34;4884650;29;20462;-81
2024/02/17 07:10:56;;;;;;;16.65;11.52;;;;;;;11.32;79.67;97772.66;4885059;29;20116;-83
2024/02/17 07:13:25;;;;;;;17.00;11.35;;;;;;;11.32;79.95;97780.47;4884657;29;20072;-82
2024/02/17 07:15:53;;;;;;;16.63;11.07;;;;;;;11.34;79.79;97781.16;4890873;29;20051;-84
2024/02/17 07:18:21;;;;;;;18.10;12.32;;;;;;;11.37;79.36;97780.84;4902919;29;20147;-82
2024/02/17 07:20:49;;;;;;;17.05;11.75;;;;;;;11.40;79.91;97796.19;4889518;29;20049;-84
2024/02/17 07:23:23;;;;;;;17.02;11.30;;;;;;;11.44;80.10;97799.31;4889006;29;20060;-85
2024/02/17 07:25:51;;;;;;;24.63;15.93;;;;;;;11.44;79.93;97796.72;4901632;29;20768;-82
2024/02/17 07:28:19;;;;;;;23.38;15.32;;;;;;;11.46;78.90;97799.97;4890347;29;20048;-83
2024/02/17 07:30:48;;;;;;;17.88;12.13;;;;;;;11.39;77.85;97810.25;4904275;29;20053;-82
2024/02/17 07:33:16;;;;;;;18.00;12.45;;;;;;;11.34;77.85;97817.72;4902765;29;20056;-80
2024/02/17 07:35:49;;;;;;;16.08;11.95;;;;;;;11.34;78.11;97825.56;4893588;29;20081;-82
2024/02/17 07:38:16;;;;;;;15.35;11.15;;;;;;;11.39;79.50;97830.31;4882087;29;20131;-81
2024/02/17 07:40:44;;;;;;;14.60;10.63;;;;;;;11.40;78.44;97824.13;4883037;29;20095;-80
2024/02/17 07:43:11;;;;;;;17.30;11.10;;;;;;;11.42;78.93;97830.00;4883541;29;20139;-79
2024/02/17 07:45:39;;;;;;;15.52;10.80;;;;;;;11.41;77.36;97829.16;4890206;29;20082;-80
2024/02/17 07:48:08;;;;;;;18.38;11.30;;;;;;;11.42;76.47;97838.66;4902548;29;20056;-83
2024/02/17 07:50:36;;;;;;;15.82;10.63;;;;;;;11.47;76.12;97840.81;4901835;29;20059;-80
2024/02/17 07:53:04;;;;;;;14.73;10.60;;;;;;;11.53;76.05;97846.22;4902142;29;20052;-79
2024/02/17 07:55:31;;;;;;;15.45;11.15;;;;;;;11.60;75.15;97842.97;4894052;29;20088;-80
2024/02/17 07:57:59;;;;;;;14.68;11.07;;;;;;;11.63;74.77;97851.34;4882453;29;20049;-80
2024/02/17 08:00:26;;;;;;;14.55;10.60;;;;;;;11.63;74.70;97848.72;4895223;29;20044;-80
2024/02/17 08:02:54;;;;;;;14.77;10.77;;;;;;;11.62;74.66;97859.31;4899707;29;20056;-81
2024/02/17 08:05:23;;;;;;;13.77;10.15;;;;;;;11.62;74.48;97862.75;4902669;29;20505;-80
2024/02/17 08:07:51;;;;;;;16.38;10.65;;;;;;;11.64;74.26;97865.22;4902894;29;20080;-80
2024/02/17 08:10:19;;;;;;;14.02;10.45;;;;;;;11.61;74.20;97862.91;4897720;29;20155;-79
2024/02/17 08:12:46;;;;;;;16.42;11.65;;;;;;;11.59;74.02;97867.47;4901730;29;20079;-82
2024/02/17 08:15:14;;;;;;;17.25;12.00;;;;;;;11.59;73.82;97867.47;4899131;29;20056;-82
2024/02/17 08:17:42;;;;;;;17.25;11.80;;;;;;;11.60;73.87;97879.56;4893257;29;20048;-80
2024/02/17 08:20:11;;;;;;;18.15;12.18;;;;;;;11.60;73.82;97885.59;4898731;29;20501;-82
2024/02/17 08:22:40;;;;;;;18.38;11.70;;;;;;;11.62;73.58;97888.06;4895567;29;20124;-80
2024/02/17 08:25:09;;;;;;;18.02;11.85;;;;;;;11.62;73.47;97883.66;4892637;29;20096;-81
2024/02/17 08:27:37;;;;;;;19.30;12.75;;;;;;;11.66;73.51;97890.22;4898251;29;20048;-80
2024/02/17 08:30:06;;;;;;;16.30;11.38;;;;;;;11.71;73.23;97893.16;4898701;29;20053;-77
2024/02/17 08:32:33;;;;;;;18.75;12.40;;;;;;;11.78;73.04;97897.78;4900027;29;20441;-78
2024/02/17 08:35:01;;;;;;;19.33;12.30;;;;;;;11.94;72.96;97892.66;4899102;29;20424;-76
2024/02/17 08:37:30;;;;;;;16.13;11.57;;;;;;;12.35;73.15;97892.72;4900152;29;20053;-77
2024/02/17 08:39:58;;;;;;;15.65;10.80;;;;;;;12.85;70.94;97902.25;4890337;29;20061;-81
2024/02/17 08:42:26;;;;;;;25.73;14.23;;;;;;;13.28;70.11;97899.44;4900618;29;20064;-79
2024/02/17 08:44:54;;;;;;;20.02;14.20;;;;;;;13.57;68.94;97907.59;4900695;29;20064;-80
2024/02/17 08:47:22;;;;;;;17.20;12.55;;;;;;;13.84;67.80;97912.56;4884886;29;20049;-78
2024/02/17 08:49:50;;;;;;;19.13;11.55;;;;;;;14.12;66.34;97910.31;4890283;29;20055;-83
2024/02/17 08:52:18;;;;;;;15.88;10.93;;;;;;;14.34;66.17;97922.69;4900559;29;20049;-82
2024/02/17 08:54:45;;;;;;;14.00;11.07;;;;;;;14.55;64.67;97921.25;4898223;29;20117;-81
2024/02/17 08:57:15;;;;;;;14.98;11.07;;;;;;;14.72;64.71;97921.97;4888028;29;20053;-79
2024/02/17 08:59:42;;;;;;;14.10;11.27;;;;;;;14.96;64.72;97923.59;4887219;29;20064;-78
2024/02/17 09:02:16;;;;;;;14.48;10.70;;;;;;;15.16;63.42;97932.59;4886546;29;20529;-81
2024/02/17 09:04:45;;;;;;;15.02;11.60;;;;;;;15.30;62.39;97924.91;4887645;29;20140;-83
2024/02/17 09:07:13;;;;;;;10.95;9.02;;;;;;;15.36;61.24;97926.84;4890369;29;20063;-76
2024/02/17 09:09:40;;;;;;;11.88;8.93;;;;;;;15.48;63.47;97935.94;4899003;29;20068;-77
2024/02/17 09:12:08;;;;;;;9.48;7.32;;;;;;;15.67;59.95;97934.56;4908249;29;20048;-78
2024/02/17 09:14:38;;;;;;;7.57;6.82;;;;;;;15.81;58.72;97938.25;4906781;29;20056;-81
2024/02/17 09:17:05;;;;;;;8.13;6.78;;;;;;;15.81;58.96;97933.78;4891479;29;20049;-79
2024/02/17 09:19:33;;;;;;;10.18;7.57;;;;;;;15.76;58.16;97935.31;4903457;29;20049;-79
2024/02/17 09:22:01;;;;;;;8.77;7.43;;;;;;;15.64;58.61;97943.63;4893236;29;20049;-81
2024/02/17 09:24:28;;;;;;;8.93;6.60;;;;;;;15.65;59.72;97939.19;4890578;29;20077;-83
2024/02/17 09:27:00;;;;;;;8.18;6.78;;;;;;;15.70;58.66;97942.13;4889030;29;20057;-82
2024/02/17 09:29:27;;;;;;;8.88;7.28;;;;;;;15.73;58.03;97946.22;4893528;29;20053;-77
2024/02/17 09:31:56;;;;;;;8.00;7.15;;;;;;;15.69;57.66;97947.53;4894337;29;20132;-79
2024/02/17 09:34:25;;;;;;;8.40;7.50;;;;;;;15.71;57.34;97958.69;4898827;29;20048;-78
2024/02/17 09:36:53;;;;;;;9.32;7.15;;;;;;;15.62;57.01;97953.53;4888094;29;20053;-79
2024/02/17 09:39:22;;;;;;;10.07;7.40;;;;;;;15.51;57.60;97958.41;4885734;29;20138;-79
2024/02/17 09:41:49;;;;;;;9.15;7.70;;;;;;;15.59;60.24;97964.41;4887265;29;20080;-77
2024/02/17 09:44:17;;;;;;;10.32;8.00;;;;;;;15.88;60.33;97964.63;4891381;29;20075;-78
2024/02/17 09:46:45;;;;;;;9.77;7.85;;;;;;;16.20;58.00;97968.69;4905567;29;20251;-82
2024/02/17 09:49:16;;;;;;;10.57;7.40;;;;;;;16.36;56.17;97963.22;4906169;29;20083;-78
2024/02/17 09:51:46;;;;;;;8.15;6.88;;;;;;;16.39;58.48;97968.09;4887075;29;20049;-79
2024/02/17 09:54:16;;;;;;;8.63;7.10;;;;;;;16.31;55.43;97976.13;4893025;29;20060;-81
2024/02/17 09:56:43;;;;;;;43.90;31.23;;;;;;;16.24;57.59;97977.84;4907656;29;20048;-78
2024/02/17 09:59:13;;;;;;;15.52;11.25;;;;;;;16.27;57.38;97982.75;4906344;29;20144;-78
2024/02/17 10:01:40;;;;;;;9.27;8.13;;;;;;;16.20;55.05;97990.59;4906341;29;20088;-80
2024/02/17 10:04:08;;;;;;;9.27;7.72;;;;;;;16.04;57.05;97988.94;4903739;29;20482;-80
2024/02/17 10:06:37;;;;;;;8.05;7.25;;;;;;;16.03;56.20;97997.84;4889256;29;20091;-81
2024/02/17 10:09:06;;;;;;;9.50;8.20;;;;;;;16.00;56.52;98000.81;4896790;29;20053;-81
2024/02/17 10:11:34;;;;;;;9.05;7.78;;;;;;;16.00;55.84;98000.81;4907146;29;20069;-80
2024/02/17 10:14:04;;;;;;;9.60;7.75;;;;;;;16.02;55.18;97995.38;4907416;29;20052;-79
2024/02/17 10:16:32;;;;;;;39.88;26.27;;;;;;;16.01;57.74;98013.00;4899688;29;20123;-79
2024/02/17 10:19:03;;;;;;;10.38;7.82;;;;;;;15.97;55.02;98010.91;4904028;29;20487;-80
2024/02/17 10:21:31;;;;;;;7.97;6.90;;;;;;;15.75;56.27;98012.63;4905868;29;20111;-77
2024/02/17 10:24:03;;;;;;;8.25;6.95;;;;;;;15.43;56.51;98010.06;4895995;29;20502;-78
2024/02/17 10:26:31;;;;;;;;;;;;;;;15.25;57.51;98006.94;4889047;29;20048;-78
2024/02/17 10:28:59;;;;;;;8.65;7.60;;;;;;;15.11;56.87;98013.81;4895274;29;19923;-77
2024/02/17 10:31:28;;;;;;;8.57;7.30;;;;;;;14.96;56.95;98013.75;4895534;29;20053;-77
2024/02/17 10:33:55;;;;;;;9.05;7.63;;;;;;;14.98;58.46;98016.19;4885775;29;20084;-76
2024/02/17 10:36:26;;;;;;;7.68;6.85;;;;;;;15.21;57.31;98024.88;4897202;29;20055;-77
2024/02/17 10:38:55;;;;;;;11.15;7.80;;;;;;;15.47;56.79;98028.13;4898813;29;20052;-79
2024/02/17 10:41:25;;;;;;;7.45;6.43;;;;;;;15.76;56.25;98030.03;4898555;29;20143;-77
2024/02/17 10:43:53;;;;;;;7.07;6.40;;;;;;;16.11;56.99;98025.88;4886024;29;20051;-78
2024/02/17 10:46:25;;;;;;;7.60;6.85;;;;;;;16.52;54.15;98022.75;4899815;29;20055;-78
2024/02/17 10:48:59;;;;;;;8.35;6.82;;;;;;;16.83;54.89;98027.78;4900829;29;20105;-79
2024/02/17 10:51:28;;;;;;;8.38;6.78;;;;;;;17.08;55.23;98030.91;4900893;29;20127;-80
2024/02/17 10:54:00;;;;;;;9.38;7.00;;;;;;;17.34;53.18;98033.94;4907828;29;20052;-77
2024/02/17 10:56:30;;;;;;;8.77;6.72;;;;;;;17.60;51.40;98034.19;4899616;29;20057;-77
2024/02/17 10:58:57;;;;;;;8.25;7.00;;;;;;;17.74;52.10;98029.00;4897471;29;20060;-77
2024/02/17 11:01:27;;;;;;;9.13;6.45;;;;;;;17.70;50.34;98042.56;4902436;29;20055;-79
2024/02/17 11:03:57;;;;;;;6.80;5.95;;;;;;;17.57;50.25;98039.84;4905538;29;20060;-82
2024/02/17 11:06:26;;;;;;;9.20;6.38;;;;;;;17.40;51.35;98039.28;4902748;29;20049;-79
2024/02/17 11:08:54;;;;;;;7.90;6.10;;;;;;;17.27;50.60;98044.44;4892221;29;20091;-78
2024/02/17 11:11:25;;;;;;;8.43;5.75;;;;;;;17.11;50.37;98040.25;4899523;29;20485;-77
2024/02/17 11:13:56;;;;;;;6.65;6.05;;;;;;;16.97;49.79;98033.22;4892126;29;20060;-77
2024/02/17 11:16:24;;;;;;;7.68;5.30;;;;;;;16.86;53.01;98037.16;4885283;29;20148;-78
2024/02/17 11:18:55;;;;;;;7.10;5.47;;;;;;;16.83;53.65;98040.97;4891471;29;20139;-77
2024/02/17 11:21:30;;;;;;;6.75;5.30;;;;;;;16.82;53.10;98035.91;4888033;29;20053;-77
2024/02/17 11:24:02;;;;;;;13.18;10.27;;;;;;;16.84;53.51;98031.25;4884145;29;20057;-77
2024/02/17 11:26:32;;;;;;;21.45;16.50;;;;;;;16.94;52.92;98036.22;4884122;29;20061;-78
2024/02/17 11:29:27;;;;;;;8.85;7.30;;;;;;;17.10;52.07;98028.09;4884220;29;20059;-78
2024/02/17 11:31:56;;;;;;;7.40;6.38;;;;;;;17.18;50.24;98027.13;4884799;29;20053;-77
2024/02/17 11:34:24;;;;;;;7.45;5.75;;;;;;;17.34;52.17;98029.53;4882468;29;20057;-77
2024/02/17 11:36:53;;;;;;;6.43;5.20;;;;;;;17.58;51.00;98017.75;4882635;29;20139;-77